Flight Track Log - Related Links

Times and Time Zones

All times are in EDT time to prevent confusion due to time zone crossing. See the SWA2236 flight status page for this flight to view local times or setup timezone preferences in your user account.

Time Position Orientation Groundspeed Altitude Reporting Facility
EDT Latitude Longitude Course Direction KTS MPH feet Rate Location/Type
Thu 09:18:53 AM 35.0689 -106.5286 57° Northeast 207 238 8,100  Level Albuquerque Center
Thu 09:19:51 AM 35.0925 -106.5944 294° West 244 281 9,800 1,866 Climbing Albuquerque Center
Thu 09:20:52 AM 35.0956 -106.6969 272° West 283 326 11,800 2,410 Climbing Albuquerque Center
Thu 09:21:53 AM 35.0936 -106.8178 269° West 348 400 14,700 2,607 Climbing Albuquerque Center
Thu 09:22:54 AM 35.0972 -106.9319 272° West 359 413 17,100 2,311 Climbing Albuquerque Center
Thu 09:23:55 AM 35.1053 -107.0836 274° West 387 445 19,400 2,262 Climbing Albuquerque Center
Thu 09:24:56 AM 35.1286 -107.2022 284° West 410 472 21,700 2,016 Climbing Albuquerque Center
Thu 09:25:57 AM 35.1575 -107.3431 284° West 422 486 23,500 2,164 Climbing Albuquerque Center
Thu 09:26:58 AM 35.1947 -107.5133 285° West 430 495 26,100 1,967 Climbing Albuquerque Center
Thu 09:27:59 AM 35.2233 -107.6481 285° West 438 504 27,500 1,574 Climbing Albuquerque Center
Thu 09:29:00 AM 35.2483 -107.8206 280° West 455 524 29,300 1,610 Climbing Albuquerque Center
Thu 09:30:02 AM 35.2686 -107.9708 279° West 464 534 30,800 1,659 Climbing Albuquerque Center
Thu 09:31:03 AM 35.2892 -108.1228 279° West 469 540 32,700 1,820 Climbing Albuquerque Center
Thu 09:32:04 AM 35.3119 -108.2967 279° West 464 534 34,500 1,525 Climbing Albuquerque Center
Thu 09:33:05 AM 35.3322 -108.4467 279° West 465 535 35,800 1,279 Climbing Albuquerque Center
Thu 09:34:06 AM 35.3517 -108.5978 279° West 467 537 37,100 1,082 Climbing Albuquerque Center
Thu 09:35:07 AM 35.3747 -108.7736 279° West 466 536 38,000 439 Climbing Albuquerque Center
Thu 09:36:09 AM 35.3942 -108.9242 279° West 465 535 38,000  Level Albuquerque Center
Thu 09:37:10 AM 35.4128 -109.0747 279° West 465 535 38,000  Level Albuquerque Center
Thu 09:38:11 AM 35.4353 -109.2506 279° West 466 536 38,000  Level Albuquerque Center
Thu 09:39:12 AM 35.4542 -109.4028 279° West 467 537 38,000  Level Albuquerque Center
Thu 09:40:13 AM 35.4747 -109.5767 278° West 463 533 38,000  Level Albuquerque Center
Thu 09:41:15 AM 35.4914 -109.7239 278° West 458 527 38,000  Level Albuquerque Center
Thu 09:42:16 AM 35.5075 -109.8744 278° West 460 529 38,000  Level Albuquerque Center
Thu 09:43:17 AM 35.5272 -110.0467 278° West 458 527 38,000 -393 Level Albuquerque Center
Thu 09:44:18 AM 35.5447 -110.1969 278° West 461 531 37,200 -829 Descending Albuquerque Center
Thu 09:45:20 AM 35.5628 -110.3469 278° West 462 532 36,300 -146 Descending Albuquerque Center
Thu 09:46:21 AM 35.5819 -110.5244 278° West 467 537 36,900 787 Climbing Albuquerque Center
Thu 09:47:22 AM 35.6006 -110.6758 279° West 468 539 37,900 537 Climbing Albuquerque Center
Thu 09:48:24 AM 35.6186 -110.8489 277° West 462 532 38,000 49 Climbing Albuquerque Center
Thu 09:49:25 AM 35.6364 -110.9986 278° West 461 531 38,000  Level Albuquerque Center
Thu 09:50:26 AM 35.6533 -111.1467 278° West 459 528 38,000  Level Albuquerque Center
Thu 09:51:28 AM 35.6706 -111.3178 277° West 454 522 38,000  Level Albuquerque Center
Thu 09:52:29 AM 35.6861 -111.4642 277° West 454 522 38,000  Level Albuquerque Center
Thu 09:53:31 AM 35.7031 -111.6192 278° West 459 528 38,000  Level Albuquerque Center
Thu 09:54:32 AM 35.7181 -111.7708 277° West 454 522 38,000  Level Albuquerque Center
Thu 09:55:33 AM 35.7333 -111.9225 277° West 451 519 38,000  Level Albuquerque Center
Thu 09:56:35 AM 35.7497 -112.0750 278° West 453 521 38,000  Level Albuquerque Center
Thu 09:57:36 AM 35.7692 -112.2572 278° West 453 521 38,000  Level Albuquerque Center
Thu 09:58:38 AM 35.7842 -112.4086 277° West 451 519 38,000  Level Albuquerque Center
Thu 09:59:39 AM 35.7983 -112.5600 277° West 451 519 38,000  Level Albuquerque Center
Thu 10:00:41 AM 35.8119 -112.7092 276° West 448 516 38,000  Level Albuquerque Center
Thu 10:01:42 AM 35.8275 -112.8622 277° West 454 522 38,000  Level Albuquerque Center
Thu 10:03:08 AM 35.8497 -113.1083 276° West 455 524 38,000  Level Los Angeles Center
Thu 10:04:10 AM 35.8631 -113.2622 276° West 457 526 38,000  Level Los Angeles Center
Thu 10:05:12 AM 35.8767 -113.4122 276° West 447 514 38,000  Level Los Angeles Center
Thu 10:06:14 AM 35.8903 -113.5656 276° West 451 519 38,000  Level Los Angeles Center
Thu 10:07:16 AM 35.9061 -113.7347 277° West 446 513 38,000  Level Los Angeles Center
Thu 10:08:18 AM 35.9183 -113.8872 276° West 445 512 38,000  Level Los Angeles Center
Thu 10:09:20 AM 35.9308 -114.0414 276° West 446 513 38,000  Level Los Angeles Center
Thu 10:10:22 AM 35.9433 -114.1947 276° West 447 514 38,000  Level Los Angeles Center
Thu 10:11:24 AM 35.9583 -114.3794 276° West 447 514 38,000  Level Los Angeles Center
Thu 10:12:26 AM 35.9706 -114.5319 276° West 443 510 38,000  Level Los Angeles Center
Thu 10:13:28 AM 35.9822 -114.6847 275° West 444 511 38,000  Level Los Angeles Center
Thu 10:14:30 AM 36.0117 -114.8289 284° West 435 501 38,000  Level Los Angeles Center
Thu 10:15:32 AM 36.0622 -114.9700 294° West 441 507 38,000  Level Los Angeles Center
Thu 10:16:34 AM 36.1097 -115.1072 293° West 438 504 38,000  Level Los Angeles Center
Thu 10:17:36 AM 36.1583 -115.2475 293° West 439 505 38,000  Level Los Angeles Center
Thu 10:18:40 AM 36.2164 -115.4153 293° West 440 506 38,000  Level Los Angeles Center
Thu 10:19:40 AM 36.2606 -115.5564 291° West 432 497 38,000  Level Los Angeles Center
Thu 10:20:42 AM 36.3033 -115.6831 293° West 454 522 38,000  Level Los Angeles Center
Thu 10:21:44 AM 36.3628 -115.8494 294° West 441 507 38,000  Level Los Angeles Center
Thu 10:22:46 AM 36.4106 -115.9864 293° West 435 501 38,000  Level Los Angeles Center
Thu 10:23:48 AM 36.4567 -116.1267 292° West 437 503 38,000  Level Los Angeles Center
Thu 10:24:50 AM 36.5019 -116.2611 293° West 440 506 38,000  Level Los Angeles Center
Thu 10:25:52 AM 36.5517 -116.4089 293° West 441 507 38,000  Level Los Angeles Center
Thu 10:26:54 AM 36.5983 -116.5508 292° West 441 507 38,000  Level Los Angeles Center
Thu 10:27:56 AM 36.6453 -116.6922 293° West 442 509 38,000  Level Los Angeles Center
Thu 10:28:58 AM 36.7014 -116.8633 292° West 443 510 38,000  Level Los Angeles Center
Thu 10:30:00 AM 36.7436 -116.9919 292° West 440 506 38,000  Level Los Angeles Center
Thu 10:31:02 AM 36.7894 -117.1328 292° West 439 505 38,000  Level Los Angeles Center
Thu 10:32:04 AM 36.8394 -117.2869 292° West 440 506 38,000  Level Los Angeles Center
Thu 10:33:06 AM 36.8839 -117.4275 292° West 435 501 38,000  Level Los Angeles Center
Thu 10:34:08 AM 36.9286 -117.5675 292° West 433 498 38,000  Level Los Angeles Center
Thu 10:34:46 AM 36.9553 -117.6519 292° West 435 501 38,000  Level Oakland Center
Thu 10:35:47 AM 37.0081 -117.8194 292° West 432 497 38,000  Level Oakland Center
Thu 10:36:48 AM 37.0528 -117.9606 292° West 432 497 38,000  Level Oakland Center
Thu 10:37:49 AM 37.0972 -118.1028 291° West 435 501 38,000  Level Oakland Center
Thu 10:38:51 AM 37.1411 -118.2439 291° West 434 499 38,000  Level Oakland Center
Thu 10:39:52 AM 37.1867 -118.3869 292° West 438 504 38,000  Level Oakland Center
Thu 10:40:53 AM 37.2328 -118.5367 291° West 437 503 38,000  Level Oakland Center
Thu 10:41:55 AM 37.2750 -118.6783 291° West 434 499 38,000  Level Oakland Center
Thu 10:42:56 AM 37.3197 -118.8214 291° West 439 505 38,000  Level Oakland Center
Thu 10:43:57 AM 37.3611 -118.9617 290° West 435 501 38,000  Level Oakland Center
Thu 10:44:59 AM 37.4050 -119.1044 291° West 438 504 38,000  Level Oakland Center
Thu 10:46:00 AM 37.4481 -119.2447 291° West 432 497 38,000  Level Oakland Center
Thu 10:47:01 AM 37.4903 -119.3856 291° West 431 496 38,000  Level Oakland Center
Thu 10:48:03 AM 37.5386 -119.5483 291° West 430 495 38,000  Level Oakland Center
Thu 10:49:04 AM 37.5819 -119.6883 291° West 430 495 38,000  Level Oakland Center
Thu 10:50:05 AM 37.6506 -119.8147 304° West 443 510 38,000  Level Oakland Center
Thu 10:51:07 AM 37.7308 -119.9336 311° West 446 513 38,000 -341 Level Oakland Center
Thu 10:52:08 AM 37.8119 -120.0522 311° West 447 514 37,300 -2,016 Descending Oakland Center
Thu 10:53:09 AM 37.8833 -120.1819 305° West 456 525 33,900 -3,295 Descending Oakland Center
Thu 10:54:10 AM 37.8811 -120.3350 269° West 438 504 30,600 -3,561 Descending Oakland Center
Thu 10:55:12 AM 37.8742 -120.4900 267° West 441 507 26,600 -4,054 Descending Oakland Center
Thu 10:56:01 AM 37.8667 -120.6500 267° West 455 524 23,100 -3,612 Descending Northern Cal TRACON
Thu 10:56:55 AM 37.8667 -120.7833 270° West 440 506 20,400 -3,105 Descending Northern Cal TRACON
Thu 10:57:55 AM 37.8500 -120.9333 262° West 424 488 17,200 -2,667 Descending Northern Cal TRACON
Thu 10:59:01 AM 37.8333 -121.0833 262° West 396 456 14,800 -2,150 Descending Northern Cal TRACON
Thu 10:59:55 AM 37.8167 -121.2167 261° West 403 464 12,900 -1,526 Descending Northern Cal TRACON
Thu 11:00:55 AM 37.7833 -121.3167 247° West 336 387 11,900 -1,053 Descending Northern Cal TRACON
Thu 11:01:49 AM 37.7333 -121.3833 227° Southwest 285 328 10,900 -1,389 Descending Northern Cal TRACON
Thu 11:02:43 AM 37.6667 -121.4000 191° South 285 328 9,400 -1,632 Descending Northern Cal TRACON
Thu 11:03:43 AM 37.5833 -121.4333 198° South 284 327 7,800 -1,200 Descending Northern Cal TRACON
Thu 11:04:43 AM 37.5667 -121.5167 256° West 282 325 7,000 -474 Descending Northern Cal TRACON
Thu 11:05:37 AM 37.5667 -121.6167 270° West 278 320 6,900 -526 Descending Northern Cal TRACON
Thu 11:06:37 AM 37.5500 -121.7000 256° West 277 319 6,000 -450 Descending Northern Cal TRACON
Thu 11:07:37 AM 37.5500 -121.8000 270° West 271 312 6,000 -470 Level Northern Cal TRACON
Thu 11:08:32 AM 37.5500 -121.8833 270° West 267 307 5,100 -1,000 Descending Northern Cal TRACON
Thu 11:09:31 AM 37.5500 -121.9667 270° West 256 295 4,100 -842 Descending Northern Cal TRACON
Thu 11:10:26 AM 37.5833 -122.0333 302° West 222 255 3,500 -842 Descending Northern Cal TRACON
Thu 11:11:25 AM 37.6167 -122.0833 310° West 208 239 2,500 -947 Descending Northern Cal TRACON
Thu 11:12:20 AM 37.6500 -122.1333 310° West 175 201 1,700 -835 Descending Northern Cal TRACON
Thu 11:13:20 AM 37.6667 -122.1667 302° West 140 161 900 -750 Descending Northern Cal TRACON
Thu 11:14:20 AM 37.7000 -122.2000 322° Northwest 139 160 200 -700 Descending Northern Cal TRACON
Thu 11:16:00 AM 37.7167 -122.2167 270° West  Level FlightAware Approximate
Thu 11:23:00 AM 37.7213 -122.2207 270° West  Level Estimated

Login

Don't have an account? Register now (free) for customized features, flight alerts, and more!